Time;durP1;ratioP1;P1;durP2;ratioP2;P2;SDS_P1;SDS_P2;PMS_P1;PMS_P2;Temp;Humidity;BMP_temperature;BMP_pressure;BME280_temperature;BME280_humidity;BME280_pressure;Samples;Min_cycle;Max_cycle;Signal;HPM_P1;HPM_P2
2022/11/11 00:00:18;;;;;;;15.70;6.30;;;;;;;;;;106876;1306;22124;-79
2022/11/11 00:03:15;;;;;;;17.70;6.50;;;;;;;;;;106806;1304;22075;-79
2022/11/11 00:06:05;;;;;;;14.90;5.50;;;;;;;;;;106766;1309;22428;-79
2022/11/11 00:08:51;;;;;;;13.70;6.20;;;;;;;;;;106928;1307;22143;-80
2022/11/11 00:11:37;;;;;;;13.10;6.20;;;;;;;;;;106742;1309;22762;-79
2022/11/11 00:14:24;;;;;;;13.90;6.20;;;;;;;;;;106759;1304;22056;-79
2022/11/11 00:26:31;;;;;;;12.90;6.00;;;;;;;;;;106769;1308;21946;-79
2022/11/11 00:29:19;;;;;;;16.10;6.20;;;;;;;;;;106841;1310;22125;-79
2022/11/11 00:32:29;;;;;;;12.90;5.70;;;;;;;;;;106750;1301;22065;-79
2022/11/11 00:41:26;;;;;;;13.20;5.90;;;;;;;;;;106836;1310;22110;-79
2022/11/11 00:44:13;;;;;;;12.80;5.50;;;;;;;;;;106719;1309;22139;-79
2022/11/11 00:53:12;;;;;;;17.60;6.10;;;;;;;;;;106791;1307;22305;-79
2022/11/11 00:55:59;;;;;;;13.30;5.70;;;;;;;;;;106741;1307;22075;-80
2022/11/11 00:58:46;;;;;;;13.80;5.80;;;;;;;;;;106909;1307;22057;-79
2022/11/11 01:01:34;;;;;;;17.10;6.40;;;;;;;;;;106913;1307;22036;-80
2022/11/11 01:04:21;;;;;;;16.40;6.10;;;;;;;;;;106723;1294;22071;-79
2022/11/11 01:07:08;;;;;;;14.30;6.00;;;;;;;;;;106710;1301;22310;-80
2022/11/11 01:09:56;;;;;;;15.80;6.20;;;;;;;;;;106717;1310;22074;-80
2022/11/11 01:12:43;;;;;;;14.90;6.10;;;;;;;;;;106725;1307;22866;-79
2022/11/11 01:22:27;;;;;;;13.40;6.20;;;;;;;;;;100737;1334;545013;-85
2022/11/11 01:25:13;;;;;;;13.60;5.60;;;;;;;;;;102730;1317;22549;-82
2022/11/11 01:27:58;;;;;;;16.20;6.50;;;;;;;;;;102556;1317;25376;-84
2022/11/11 01:30:43;;;;;;;15.70;6.60;;;;;;;;;;102677;1311;22727;-84
2022/11/11 01:33:29;;;;;;;17.90;6.60;;;;;;;;;;102542;1317;23883;-84
2022/11/11 01:36:16;;;;;;;17.60;7.40;;;;;;;;;;101745;1316;1280230;-84
2022/11/11 01:39:02;;;;;;;15.20;6.40;;;;;;;;;;102949;1316;24276;-84
2022/11/11 01:41:47;;;;;;;14.50;5.80;;;;;;;;;;102818;1316;22624;-80
2022/11/11 01:44:45;;;;;;;12.60;5.60;;;;;;;;;;102876;1315;22469;-81
2022/11/11 01:49:17;;;;;;;12.80;5.40;;;;;;;;;;102793;1316;22611;-82
2022/11/11 01:50:36;;;;;;;13.40;4.90;;;;;;;;;;102875;1308;24446;-86
2022/11/11 01:53:22;;;;;;;12.70;5.20;;;;;;;;;;102873;1313;24329;-82
2022/11/11 01:56:07;;;;;;;16.90;5.50;;;;;;;;;;103773;1304;25367;-83
2022/11/11 01:58:54;;;;;;;15.30;6.40;;;;;;;;;;103623;1304;24261;-82
2022/11/11 02:01:40;;;;;;;13.90;5.50;;;;;;;;;;103641;1304;22464;-80
2022/11/11 02:07:30;;;;;;;11.60;5.40;;;;;;;;;;103593;1301;25443;-82
2022/11/11 02:10:20;;;;;;;15.20;6.30;;;;;;;;;;103556;1307;24356;-80
2022/11/11 02:16:16;;;;;;;11.80;5.60;;;;;;;;;;103561;1298;24314;-83
2022/11/11 02:19:02;;;;;;;12.80;5.70;;;;;;;;;;103340;1306;22527;-81
2022/11/11 02:21:53;;;;;;;12.80;5.60;;;;;;;;;;103566;1306;22464;-82
2022/11/11 02:24:40;;;;;;;12.10;6.20;;;;;;;;;;103380;1307;23847;-87
2022/11/11 02:27:27;;;;;;;12.70;6.30;;;;;;;;;;103226;1307;24352;-86
2022/11/11 02:30:15;;;;;;;16.50;6.80;;;;;;;;;;103434;1300;23245;-84
2022/11/11 02:33:01;;;;;;;15.10;6.30;;;;;;;;;;103451;1307;22470;-81
2022/11/11 02:35:57;;;;;;;17.20;6.50;;;;;;;;;;103281;1307;22474;-84
2022/11/11 02:38:43;;;;;;;15.60;6.60;;;;;;;;;;103580;1300;22521;-81
2022/11/11 02:44:33;;;;;;;18.60;7.30;;;;;;;;;;103489;1307;24315;-84
2022/11/11 02:47:18;;;;;;;18.90;8.10;;;;;;;;;;103541;1307;22586;-86
2022/11/11 02:50:04;;;;;;;16.20;7.60;;;;;;;;;;103067;1307;24390;-81
2022/11/11 02:52:49;;;;;;;16.90;7.60;;;;;;;;;;103324;1291;22460;-83
2022/11/11 02:55:34;;;;;;;16.60;6.70;;;;;;;;;;103283;1310;25469;-85
2022/11/11 02:58:20;;;;;;;14.80;7.10;;;;;;;;;;103411;1310;25210;-84
2022/11/11 03:01:05;;;;;;;18.10;7.20;;;;;;;;;;103251;1310;24245;-82
2022/11/11 03:03:50;;;;;;;16.60;7.30;;;;;;;;;;103332;1305;25826;-80
2022/11/11 03:06:36;;;;;;;18.70;7.20;;;;;;;;;;103530;1307;24183;-84
2022/11/11 03:09:21;;;;;;;14.50;7.00;;;;;;;;;;103293;1308;25384;-82
2022/11/11 03:12:07;;;;;;;20.40;7.90;;;;;;;;;;103465;1307;25889;-83
2022/11/11 03:14:54;;;;;;;16.40;7.00;;;;;;;;;;103355;1310;22488;-82
2022/11/11 03:17:39;;;;;;;15.30;6.90;;;;;;;;;;103091;1310;22594;-85
2022/11/11 03:23:29;;;;;;;17.70;7.60;;;;;;;;;;103292;1310;22478;-80
2022/11/11 03:26:15;;;;;;;15.60;6.70;;;;;;;;;;103209;1309;23900;-80
2022/11/11 03:29:00;;;;;;;19.70;8.10;;;;;;;;;;103180;1309;22464;-86
2022/11/11 03:31:45;;;;;;;16.50;7.60;;;;;;;;;;103314;1309;24241;-82
2022/11/11 03:34:31;;;;;;;17.80;7.50;;;;;;;;;;103152;1309;22448;-87
2022/11/11 03:40:20;;;;;;;15.60;8.00;;;;;;;;;;103413;1309;22463;-82
2022/11/11 03:43:06;;;;;;;18.90;7.90;;;;;;;;;;103405;1309;22481;-81
2022/11/11 03:45:52;;;;;;;16.40;7.60;;;;;;;;;;103212;1309;25210;-83
2022/11/11 03:48:37;;;;;;;17.40;8.00;;;;;;;;;;103446;1308;25304;-84
2022/11/11 03:51:23;;;;;;;19.30;8.20;;;;;;;;;;103079;1309;25219;-80
2022/11/11 03:54:08;;;;;;;16.20;7.00;;;;;;;;;;103188;1309;24031;-80
2022/11/11 03:57:29;;;;;;;17.70;7.40;;;;;;;;;;103289;1310;22546;-83
2022/11/11 04:00:02;;;;;;;17.30;7.20;;;;;;;;;;103476;1306;23896;-84
2022/11/11 04:12:00;;;;;;;16.90;7.60;;;;;;;;;;103448;1300;22712;-81
2022/11/11 04:17:50;;;;;;;16.00;6.40;;;;;;;;;;103487;1306;25202;-87
2022/11/11 04:23:59;;;;;;;17.90;7.90;;;;;;;;;;103045;1310;24281;-85
2022/11/11 04:26:45;;;;;;;17.60;7.40;;;;;;;;;;103119;1297;22599;-81
2022/11/11 04:29:31;;;;;;;16.70;7.50;;;;;;;;;;103113;1310;25336;-80
2022/11/11 04:32:37;;;;;;;16.00;6.90;;;;;;;;;;103245;1309;22609;-84
2022/11/11 04:35:23;;;;;;;15.60;6.90;;;;;;;;;;103135;1304;22008;-83
2022/11/11 04:41:13;;;;;;;15.90;7.60;;;;;;;;;;103170;1309;24354;-79
2022/11/11 04:47:02;;;;;;;16.00;6.40;;;;;;;;;;103054;1307;22741;-87
2022/11/11 04:49:48;;;;;;;15.90;6.90;;;;;;;;;;103007;1310;22486;-87
2022/11/11 04:52:33;;;;;;;13.90;5.90;;;;;;;;;;103037;1309;22510;-83
2022/11/11 04:58:24;;;;;;;14.10;5.50;;;;;;;;;;103573;1301;22464;-82
2022/11/11 05:01:10;;;;;;;17.10;6.50;;;;;;;;;;103733;1297;24434;-86
2022/11/11 05:03:55;;;;;;;13.90;5.40;;;;;;;;;;103468;1288;22462;-81
2022/11/11 05:09:45;;;;;;;13.20;5.90;;;;;;;;;;103725;1304;25537;-82
2022/11/11 05:12:30;;;;;;;14.00;6.20;;;;;;;;;;103538;1306;22458;-83
2022/11/11 05:21:26;;;;;;;13.70;6.40;;;;;;;;;;103608;1292;25362;-81
2022/11/11 05:27:17;;;;;;;14.10;6.60;;;;;;;;;;103789;1303;22519;-83
2022/11/11 05:30:03;;;;;;;15.10;6.50;;;;;;;;;;103753;1307;25350;-81
2022/11/11 05:32:48;;;;;;;13.20;6.40;;;;;;;;;;103526;1291;24281;-85
2022/11/11 05:35:35;;;;;;;16.00;6.60;;;;;;;;;;103557;1292;22485;-82
2022/11/11 05:38:20;;;;;;;14.30;6.90;;;;;;;;;;103774;1304;24377;-81
2022/11/11 05:41:06;;;;;;;16.70;6.70;;;;;;;;;;103588;1292;22520;-81
2022/11/11 05:43:52;;;;;;;16.70;7.10;;;;;;;;;;103490;1306;22465;-80
2022/11/11 05:46:37;;;;;;;18.00;6.80;;;;;;;;;;103739;1307;22496;-85
2022/11/11 05:49:23;;;;;;;15.10;6.10;;;;;;;;;;103529;1304;22600;-83
2022/11/11 05:52:10;;;;;;;15.20;6.80;;;;;;;;;;103604;1304;24243;-80
2022/11/11 05:54:55;;;;;;;17.20;8.00;;;;;;;;;;103575;1304;23246;-82
2022/11/11 05:57:41;;;;;;;17.70;6.70;;;;;;;;;;103587;1304;25360;-84
2022/11/11 06:00:26;;;;;;;14.50;6.50;;;;;;;;;;103674;1291;23185;-79
2022/11/11 06:03:11;;;;;;;16.70;6.70;;;;;;;;;;103844;1304;22528;-82
2022/11/11 06:05:57;;;;;;;16.90;6.80;;;;;;;;;;103530;1297;22724;-84
2022/11/11 06:08:43;;;;;;;15.10;5.90;;;;;;;;;;103783;1305;22507;-81
2022/11/11 06:11:28;;;;;;;14.60;5.50;;;;;;;;;;103516;1306;24346;-81
2022/11/11 06:14:14;;;;;;;14.50;6.40;;;;;;;;;;103533;1298;24320;-87
2022/11/11 06:16:59;;;;;;;18.00;6.60;;;;;;;;;;103814;1307;22479;-87
2022/11/11 06:19:44;;;;;;;15.70;6.80;;;;;;;;;;103736;1299;22512;-83
2022/11/11 06:28:43;;;;;;;14.60;6.30;;;;;;;;;;103540;1304;24322;-86
2022/11/11 06:31:28;;;;;;;16.90;6.10;;;;;;;;;;103581;1300;22470;-81
2022/11/11 06:34:14;;;;;;;17.50;6.70;;;;;;;;;;103574;1306;23897;-80
2022/11/11 06:36:59;;;;;;;15.50;6.40;;;;;;;;;;103647;1306;24286;-86
2022/11/11 06:39:45;;;;;;;13.90;5.90;;;;;;;;;;103396;1300;22464;-87
2022/11/11 06:42:35;;;;;;;16.60;6.80;;;;;;;;;;103471;1306;24199;-79
2022/11/11 06:45:20;;;;;;;16.70;8.40;;;;;;;;;;103270;1295;22458;-86
2022/11/11 06:48:06;;;;;;;15.20;7.20;;;;;;;;;;103506;1304;22677;-82
2022/11/11 06:50:51;;;;;;;16.30;6.90;;;;;;;;;;103441;1307;25396;-84
2022/11/11 06:53:36;;;;;;;16.40;6.60;;;;;;;;;;103849;1307;22475;-83
2022/11/11 06:56:22;;;;;;;15.30;6.90;;;;;;;;;;103743;1307;21891;-84
2022/11/11 06:59:07;;;;;;;13.30;6.40;;;;;;;;;;103604;1304;22533;-86
2022/11/11 07:01:52;;;;;;;16.10;6.60;;;;;;;;;;103589;1304;25247;-80
2022/11/11 07:04:38;;;;;;;13.70;6.40;;;;;;;;;;103796;1304;22470;-87
2022/11/11 07:07:23;;;;;;;18.50;7.00;;;;;;;;;;103529;1304;24288;-83
2022/11/11 07:10:09;;;;;;;17.00;6.70;;;;;;;;;;103551;1306;22499;-86
2022/11/11 07:12:54;;;;;;;16.20;6.50;;;;;;;;;;103800;1306;22471;-84
2022/11/11 07:15:40;;;;;;;14.80;7.00;;;;;;;;;;103545;1307;22585;-84
2022/11/11 07:18:25;;;;;;;13.80;6.20;;;;;;;;;;103544;1298;24308;-81
2022/11/11 07:21:11;;;;;;;15.80;7.10;;;;;;;;;;103528;1298;24368;-82
2022/11/11 07:23:56;;;;;;;16.00;7.60;;;;;;;;;;103620;1306;22428;-81
2022/11/11 07:26:41;;;;;;;15.00;7.60;;;;;;;;;;103550;1306;25318;-84
2022/11/11 07:29:28;;;;;;;15.60;7.20;;;;;;;;;;103514;1305;22532;-83
2022/11/11 07:32:16;;;;;;;15.40;7.20;;;;;;;;;;103627;1307;22701;-82
2022/11/11 07:35:02;;;;;;;14.80;7.00;;;;;;;;;;103706;1299;23948;-86
2022/11/11 07:37:47;;;;;;;17.00;6.90;;;;;;;;;;103585;1307;22468;-85
2022/11/11 07:40:34;;;;;;;17.80;7.10;;;;;;;;;;103585;1304;22541;-81
2022/11/11 07:43:19;;;;;;;15.90;6.50;;;;;;;;;;103755;1304;22457;-86
2022/11/11 07:46:04;;;;;;;17.60;7.30;;;;;;;;;;103638;1297;22461;-80
2022/11/11 07:48:50;;;;;;;15.70;6.70;;;;;;;;;;103794;1304;25534;-80
2022/11/11 07:51:35;;;;;;;19.10;6.80;;;;;;;;;;103550;1307;24694;-82
2022/11/11 07:54:21;;;;;;;13.70;6.40;;;;;;;;;;103629;1304;22463;-86
2022/11/11 07:57:06;;;;;;;14.50;7.40;;;;;;;;;;103531;1307;22587;-80
2022/11/11 07:59:51;;;;;;;16.00;7.50;;;;;;;;;;103549;1297;22605;-82
2022/11/11 08:02:37;;;;;;;15.50;7.40;;;;;;;;;;103726;1305;22503;-84
2022/11/11 08:05:22;;;;;;;16.50;7.90;;;;;;;;;;103796;1303;22501;-81
2022/11/11 08:08:08;;;;;;;15.70;7.30;;;;;;;;;;103712;1307;22454;-87
2022/11/11 08:10:55;;;;;;;14.90;6.60;;;;;;;;;;103565;1297;23837;-83
2022/11/11 08:13:42;;;;;;;22.40;10.50;;;;;;;;;;103730;1305;22468;-81
2022/11/11 08:16:27;;;;;;;16.50;8.10;;;;;;;;;;103541;1306;22455;-86
2022/11/11 08:19:13;;;;;;;17.40;9.20;;;;;;;;;;103728;1307;25537;-81
2022/11/11 08:21:59;;;;;;;17.60;8.50;;;;;;;;;;103512;1301;22848;-85
2022/11/11 08:24:44;;;;;;;18.90;8.40;;;;;;;;;;103765;1304;24187;-81
2022/11/11 08:27:30;;;;;;;16.70;8.40;;;;;;;;;;103808;1304;22468;-85
2022/11/11 08:30:15;;;;;;;18.20;7.80;;;;;;;;;;103819;1304;22467;-80
2022/11/11 08:33:02;;;;;;;16.80;7.30;;;;;;;;;;103534;1284;22468;-80
2022/11/11 08:35:48;;;;;;;17.20;8.10;;;;;;;;;;103544;1305;22500;-79
2022/11/11 08:38:34;;;;;;;13.90;7.40;;;;;;;;;;103612;1293;22482;-81
2022/11/11 08:41:21;;;;;;;14.00;7.00;;;;;;;;;;103531;1285;25453;-80
2022/11/11 08:44:06;;;;;;;13.70;6.80;;;;;;;;;;103761;1289;22464;-81
2022/11/11 08:46:52;;;;;;;15.10;7.30;;;;;;;;;;103547;1292;24368;-83
2022/11/11 08:49:37;;;;;;;13.70;6.50;;;;;;;;;;103718;1305;22471;-83
2022/11/11 08:52:23;;;;;;;15.00;6.70;;;;;;;;;;103779;1304;25319;-81
2022/11/11 08:55:08;;;;;;;13.10;6.30;;;;;;;;;;103837;1296;22466;-80
2022/11/11 08:57:58;;;;;;;14.80;6.50;;;;;;;;;;103808;1304;24374;-80
2022/11/11 09:00:43;;;;;;;13.90;6.40;;;;;;;;;;103579;1307;22678;-83
2022/11/11 09:03:29;;;;;;;14.30;6.50;;;;;;;;;;103507;1306;22471;-87
2022/11/11 09:06:15;;;;;;;13.20;6.00;;;;;;;;;;103526;1292;22728;-82
2022/11/11 09:09:00;;;;;;;13.80;6.10;;;;;;;;;;103539;1306;22547;-85
2022/11/11 09:11:46;;;;;;;13.90;6.70;;;;;;;;;;103534;1304;25503;-84
2022/11/11 09:14:32;;;;;;;13.40;6.50;;;;;;;;;;103558;1304;24279;-85
2022/11/11 09:17:17;;;;;;;16.00;7.60;;;;;;;;;;103569;1292;24230;-82
2022/11/11 09:20:03;;;;;;;14.70;7.50;;;;;;;;;;103781;1280;23945;-84
2022/11/11 09:22:49;;;;;;;14.90;7.10;;;;;;;;;;103517;1292;22475;-83
2022/11/11 09:25:34;;;;;;;15.10;7.40;;;;;;;;;;103838;1282;25369;-78
2022/11/11 09:28:20;;;;;;;16.00;7.10;;;;;;;;;;103570;1288;22466;-82
2022/11/11 09:31:06;;;;;;;15.10;7.60;;;;;;;;;;103483;1291;25447;-82
2022/11/11 09:33:51;;;;;;;15.30;7.60;;;;;;;;;;103433;1282;25255;-80
2022/11/11 09:36:37;;;;;;;13.80;7.20;;;;;;;;;;103566;1291;23049;-84
2022/11/11 09:39:22;;;;;;;12.40;5.70;;;;;;;;;;103513;1296;22464;-80
2022/11/11 09:42:24;;;;;;;13.20;6.80;;;;;;;;;;103528;1289;22531;-78
2022/11/11 09:45:13;;;;;;;12.70;6.20;;;;;;;;;;103570;1280;24211;-78
2022/11/11 09:48:03;;;;;;;14.80;6.60;;;;;;;;;;103551;1289;22479;-82
2022/11/11 09:50:53;;;;;;;16.00;7.20;;;;;;;;;;103499;1281;25565;-83
2022/11/11 09:53:41;;;;;;;18.30;7.80;;;;;;;;;;103551;1298;25272;-84
2022/11/11 09:56:27;;;;;;;14.10;7.30;;;;;;;;;;103430;1278;24308;-82
2022/11/11 09:59:33;;;;;;;14.60;7.10;;;;;;;;;;103512;1283;26471;-79
2022/11/11 10:02:34;;;;;;;12.70;6.60;;;;;;;;;;103576;1288;24261;-80
2022/11/11 10:05:39;;;;;;;15.60;6.80;;;;;;;;;;103497;1290;24322;-82
2022/11/11 10:08:27;;;;;;;14.50;6.80;;;;;;;;;;103579;1283;24395;-80
2022/11/11 10:11:17;;;;;;;15.40;6.50;;;;;;;;;;103444;1292;25489;-81
2022/11/11 10:14:03;;;;;;;14.40;6.90;;;;;;;;;;107179;1289;22155;-78
2022/11/11 10:16:49;;;;;;;13.70;6.30;;;;;;;;;;106892;1306;22073;-79
2022/11/11 10:19:40;;;;;;;13.20;5.90;;;;;;;;;;106955;1306;22067;-78
2022/11/11 10:22:35;;;;;;;12.30;6.20;;;;;;;;;;106957;1306;22084;-80
2022/11/11 10:25:22;;;;;;;12.70;6.30;;;;;;;;;;106871;1300;22070;-79
2022/11/11 10:28:12;;;;;;;13.30;6.10;;;;;;;;;;107238;1291;22341;-79
2022/11/11 10:31:00;;;;;;;11.40;6.30;;;;;;;;;;106939;1305;22073;-80
2022/11/11 10:33:45;;;;;;;16.60;7.60;;;;;;;;;;106916;1306;22451;-79
2022/11/11 10:36:31;;;;;;;13.10;6.90;;;;;;;;;;106960;1307;21959;-79
2022/11/11 10:39:24;;;;;;;14.80;7.00;;;;;;;;;;107047;1306;22073;-80
2022/11/11 10:42:15;;;;;;;12.70;6.70;;;;;;;;;;107047;1297;22153;-79
2022/11/11 10:45:11;;;;;;;13.40;6.50;;;;;;;;;;106910;1306;22117;-79
2022/11/11 10:48:01;;;;;;;16.10;8.00;;;;;;;;;;106923;1306;22747;-80
2022/11/11 10:50:49;;;;;;;24.40;9.60;;;;;;;;;;106926;1304;22130;-79
2022/11/11 10:53:41;;;;;;;26.20;10.30;;;;;;;;;;106926;1306;22085;-79
2022/11/11 10:56:30;;;;;;;33.20;13.70;;;;;;;;;;107022;1307;22076;-79
2022/11/11 10:59:22;;;;;;;29.60;12.30;;;;;;;;;;107044;1307;21974;-79
2022/11/11 11:02:22;;;;;;;31.30;14.50;;;;;;;;;;106914;1307;22067;-80
2022/11/11 11:05:19;;;;;;;19.00;9.40;;;;;;;;;;107199;1294;21975;-80
2022/11/11 11:08:07;;;;;;;22.50;11.00;;;;;;;;;;106966;1307;22549;-80
2022/11/11 11:10:55;;;;;;;18.30;8.70;;;;;;;;;;107150;1300;22018;-80
2022/11/11 11:13:48;;;;;;;18.60;8.20;;;;;;;;;;106934;1306;22076;-80
2022/11/11 11:16:49;;;;;;;15.90;7.50;;;;;;;;;;106830;1306;22812;-79
2022/11/11 11:19:38;;;;;;;17.90;8.00;;;;;;;;;;106811;1309;22110;-79
2022/11/11 11:22:43;;;;;;;16.10;7.50;;;;;;;;;;106955;1306;22777;-79
2022/11/11 11:25:32;;;;;;;15.50;6.70;;;;;;;;;;106910;1306;21941;-79
2022/11/11 11:28:17;;;;;;;15.70;7.30;;;;;;;;;;106807;1312;22121;-80
2022/11/11 11:31:06;;;;;;;13.80;6.20;;;;;;;;;;106912;1313;22836;-79
2022/11/11 11:33:53;;;;;;;14.20;7.00;;;;;;;;;;106807;1297;22013;-79
2022/11/11 11:36:38;;;;;;;12.90;6.30;;;;;;;;;;106808;1311;22153;-79
2022/11/11 11:39:31;;;;;;;13.10;7.10;;;;;;;;;;106853;1310;22123;-79
2022/11/11 11:42:30;;;;;;;12.10;5.90;;;;;;;;;;106824;1309;22060;-79
2022/11/11 11:45:19;;;;;;;11.90;6.40;;;;;;;;;;106995;1302;22381;-79
2022/11/11 11:48:17;;;;;;;11.80;6.30;;;;;;;;;;107051;1288;22069;-78
2022/11/11 11:51:18;;;;;;;11.90;5.90;;;;;;;;;;106790;1311;22031;-79
2022/11/11 11:54:11;;;;;;;10.90;5.70;;;;;;;;;;106781;1307;22181;-79
2022/11/11 11:56:59;;;;;;;12.10;5.10;;;;;;;;;;106796;1305;22119;-79
2022/11/11 11:59:49;;;;;;;13.50;6.00;;;;;;;;;;106942;1303;22503;-79
2022/11/11 12:02:35;;;;;;;9.50;4.80;;;;;;;;;;106966;1312;22080;-79
2022/11/11 12:05:26;;;;;;;10.00;5.10;;;;;;;;;;106938;1305;22835;-78
2022/11/11 12:08:21;;;;;;;9.60;4.50;;;;;;;;;;106916;1306;22646;-79
2022/11/11 12:11:14;;;;;;;10.50;5.40;;;;;;;;;;106938;1304;22072;-78
2022/11/11 12:14:18;;;;;;;14.70;6.30;;;;;;;;;;106809;1295;22198;-79
2022/11/11 12:17:14;;;;;;;11.10;5.30;;;;;;;;;;107147;1280;22063;-78
2022/11/11 12:20:03;;;;;;;10.90;5.30;;;;;;;;;;106804;1306;22068;-79
2022/11/11 12:22:55;;;;;;;11.20;5.10;;;;;;;;;;107202;1300;22056;-79
2022/11/11 12:25:41;;;;;;;11.40;5.30;;;;;;;;;;107034;1298;21948;-77
2022/11/11 12:28:44;;;;;;;12.60;5.90;;;;;;;;;;107143;1296;22058;-78
2022/11/11 12:31:35;;;;;;;13.40;6.50;;;;;;;;;;106899;1306;22115;-78
2022/11/11 12:34:39;;;;;;;16.80;7.90;;;;;;;;;;106902;1306;22078;-79
2022/11/11 12:37:43;;;;;;;18.30;7.70;;;;;;;;;;106880;1306;22101;-79
2022/11/11 12:40:34;;;;;;;15.90;7.80;;;;;;;;;;106778;1306;22102;-79
2022/11/11 12:43:22;;;;;;;15.50;8.30;;;;;;;;;;106921;1306;22049;-79
2022/11/11 12:46:14;;;;;;;14.90;8.10;;;;;;;;;;106994;1302;22994;-78
2022/11/11 12:49:11;;;;;;;19.30;9.60;;;;;;;;;;106907;1306;22805;-78
2022/11/11 12:52:02;;;;;;;17.10;8.50;;;;;;;;;;106894;1306;22074;-79
2022/11/11 12:54:57;;;;;;;16.20;8.60;;;;;;;;;;106912;1306;22693;-78
2022/11/11 12:58:01;;;;;;;17.00;8.60;;;;;;;;;;106896;1306;22137;-79
2022/11/11 13:01:10;;;;;;;14.10;7.80;;;;;;;;;;106921;1306;22085;-78
2022/11/11 13:04:07;;;;;;;16.10;8.70;;;;;;;;;;106899;1306;21646;-78
2022/11/11 13:07:12;;;;;;;19.10;8.50;;;;;;;;;;106896;1306;22091;-78
2022/11/11 13:10:04;;;;;;;16.60;8.40;;;;;;;;;;106996;1299;22122;-79
2022/11/11 13:12:56;;;;;;;16.60;7.80;;;;;;;;;;107146;1286;22054;-78
2022/11/11 13:15:42;;;;;;;16.60;8.00;;;;;;;;;;106892;1306;22162;-79
2022/11/11 13:18:33;;;;;;;16.20;8.00;;;;;;;;;;106737;1309;22774;-78
2022/11/11 13:21:21;;;;;;;13.50;7.20;;;;;;;;;;106873;1307;22107;-78
2022/11/11 13:24:10;;;;;;;16.90;7.90;;;;;;;;;;106740;1309;21958;-78
2022/11/11 13:26:59;;;;;;;20.10;8.50;;;;;;;;;;106881;1307;22081;-79
2022/11/11 13:29:45;;;;;;;16.50;8.10;;;;;;;;;;106688;1308;22813;-78
2022/11/11 13:32:37;;;;;;;19.60;8.60;;;;;;;;;;106982;1302;22078;-79
2022/11/11 13:35:30;;;;;;;23.60;10.70;;;;;;;;;;105846;1307;1213257;-79
2022/11/11 13:38:33;;;;;;;24.70;10.30;;;;;;;;;;106780;1307;22356;-78
2022/11/11 13:41:28;;;;;;;24.00;9.80;;;;;;;;;;106722;1310;22850;-79
2022/11/11 13:44:20;;;;;;;23.70;10.20;;;;;;;;;;106748;1307;22069;-78
2022/11/11 13:47:09;;;;;;;27.60;10.90;;;;;;;;;;106894;1307;22089;-78
2022/11/11 13:49:58;;;;;;;23.40;10.10;;;;;;;;;;106757;1302;22078;-79
2022/11/11 13:52:53;;;;;;;22.00;9.70;;;;;;;;;;106755;1307;22754;-79
2022/11/11 13:55:46;;;;;;;24.50;9.80;;;;;;;;;;106787;1298;22082;-79
2022/11/11 13:58:33;;;;;;;22.10;9.50;;;;;;;;;;106770;1294;22088;-78
2022/11/11 14:01:18;;;;;;;20.80;8.80;;;;;;;;;;106758;1307;22163;-78
2022/11/11 14:04:04;;;;;;;15.80;8.30;;;;;;;;;;106886;1307;22082;-78
2022/11/11 14:06:51;;;;;;;20.20;8.90;;;;;;;;;;106784;1307;22166;-78
2022/11/11 14:09:55;;;;;;;20.10;9.90;;;;;;;;;;106723;1307;22114;-78
2022/11/11 14:13:00;;;;;;;23.30;11.10;;;;;;;;;;106773;1307;22073;-78
2022/11/11 14:15:53;;;;;;;27.10;13.30;;;;;;;;;;106222;1314;22164;-78
2022/11/11 14:18:42;;;;;;;25.30;14.10;;;;;;;;;;106235;1315;22125;-78
2022/11/11 14:21:41;;;;;;;30.70;13.60;;;;;;;;;;106343;1314;22151;-79
2022/11/11 14:24:30;;;;;;;30.50;13.40;;;;;;;;;;106236;1313;22230;-78
2022/11/11 14:27:17;;;;;;;35.40;15.00;;;;;;;;;;106644;1291;22093;-79
2022/11/11 14:30:03;;;;;;;59.80;21.80;;;;;;;;;;106358;1308;22159;-79
2022/11/11 14:32:54;;;;;;;52.90;20.70;;;;;;;;;;106151;1315;22125;-80
2022/11/11 14:35:55;;;;;;;57.40;21.50;;;;;;;;;;106134;1310;22134;-79
2022/11/11 14:38:45;;;;;;;43.70;17.30;;;;;;;;;;106242;1307;22246;-77
2022/11/11 14:41:39;;;;;;;46.70;16.90;;;;;;;;;;106316;1301;22148;-76
2022/11/11 14:44:28;;;;;;;53.50;19.50;;;;;;;;;;106413;1307;22033;-77
2022/11/11 14:47:13;;;;;;;72.90;23.10;;;;;;;;;;106656;1304;22799;-77
2022/11/11 14:49:59;;;;;;;68.10;23.00;;;;;;;;;;106655;1300;22094;-76
2022/11/11 14:52:45;;;;;;;66.00;23.50;;;;;;;;;;106274;1309;21943;-79
2022/11/11 14:55:33;;;;;;;57.10;20.80;;;;;;;;;;106695;1309;22792;-78
2022/11/11 14:58:24;;;;;;;55.40;20.80;;;;;;;;;;106717;1309;22860;-79
2022/11/11 15:01:12;;;;;;;54.50;21.00;;;;;;;;;;106691;1309;22750;-78
2022/11/11 15:04:00;;;;;;;57.50;24.30;;;;;;;;;;106859;1310;22736;-78
2022/11/11 15:06:53;;;;;;;65.10;31.60;;;;;;;;;;106869;1301;22778;-78
2022/11/11 15:09:42;;;;;;;81.90;32.90;;;;;;;;;;106702;1308;22208;-78
2022/11/11 15:12:33;;;;;;;226.20;75.50;;;;;;;;;;106652;1309;22645;-78
2022/11/11 15:15:25;;;;;;;57.80;25.90;;;;;;;;;;106710;1309;22162;-78
2022/11/11 15:18:11;;;;;;;33.30;18.30;;;;;;;;;;106706;1309;22120;-78
2022/11/11 15:21:00;;;;;;;31.10;16.60;;;;;;;;;;106697;1309;22123;-79
2022/11/11 15:23:56;;;;;;;31.90;16.60;;;;;;;;;;106668;1309;22919;-79
2022/11/11 15:26:54;;;;;;;27.80;15.40;;;;;;;;;;106722;1309;22074;-79
2022/11/11 15:29:56;;;;;;;28.80;15.60;;;;;;;;;;106690;1309;22105;-78
2022/11/11 15:32:52;;;;;;;28.30;15.50;;;;;;;;;;106641;1309;22105;-79
2022/11/11 15:35:56;;;;;;;26.80;14.90;;;;;;;;;;106760;1310;22050;-78
2022/11/11 15:38:42;;;;;;;31.80;14.50;;;;;;;;;;106756;1309;22041;-78
2022/11/11 15:41:37;;;;;;;28.30;14.80;;;;;;;;;;106741;1310;22843;-79
2022/11/11 15:44:25;;;;;;;31.30;15.20;;;;;;;;;;106699;1310;22746;-78
2022/11/11 15:47:12;;;;;;;28.00;14.30;;;;;;;;;;106696;1310;22045;-79
2022/11/11 15:49:59;;;;;;;28.70;14.30;;;;;;;;;;106765;1308;22716;-79
2022/11/11 15:52:44;;;;;;;27.60;13.00;;;;;;;;;;106703;1304;22085;-78
2022/11/11 15:55:32;;;;;;;28.10;12.60;;;;;;;;;;106618;1310;22053;-79
2022/11/11 15:58:25;;;;;;;28.70;13.00;;;;;;;;;;106634;1310;22079;-80
2022/11/11 16:01:11;;;;;;;27.70;11.90;;;;;;;;;;106655;1295;22051;-79
2022/11/11 16:03:57;;;;;;;27.10;12.00;;;;;;;;;;106586;1310;22839;-80
2022/11/11 16:06:44;;;;;;;28.30;12.40;;;;;;;;;;106963;1297;22810;-79
2022/11/11 16:09:30;;;;;;;31.10;14.70;;;;;;;;;;106955;1288;22041;-80
2022/11/11 16:12:18;;;;;;;29.90;14.30;;;;;;;;;;106682;1309;22750;-80
2022/11/11 16:15:08;;;;;;;28.60;13.10;;;;;;;;;;106738;1308;22128;-80
2022/11/11 16:17:59;;;;;;;25.90;11.10;;;;;;;;;;106583;1310;22754;-80
2022/11/11 16:20:51;;;;;;;25.60;12.60;;;;;;;;;;106646;1310;22077;-80
2022/11/11 16:23:39;;;;;;;25.20;11.40;;;;;;;;;;106549;1309;22069;-80
2022/11/11 16:26:26;;;;;;;23.50;11.80;;;;;;;;;;106624;1309;22129;-80
2022/11/11 16:29:14;;;;;;;25.70;12.80;;;;;;;;;;106586;1305;22045;-80
2022/11/11 16:32:02;;;;;;;22.70;11.90;;;;;;;;;;106593;1309;22086;-80
2022/11/11 16:34:49;;;;;;;25.60;14.10;;;;;;;;;;106610;1309;22694;-80
2022/11/11 16:37:50;;;;;;;25.90;12.40;;;;;;;;;;106616;1304;22070;-81
2022/11/11 16:40:42;;;;;;;21.60;10.80;;;;;;;;;;106596;1309;22051;-81
2022/11/11 16:43:33;;;;;;;22.50;11.10;;;;;;;;;;106594;1309;22411;-80
2022/11/11 16:46:40;;;;;;;24.30;12.80;;;;;;;;;;106595;1310;22044;-80
2022/11/11 16:49:40;;;;;;;39.40;21.50;;;;;;;;;;106575;1310;21714;-80
2022/11/11 16:52:28;;;;;;;33.10;16.50;;;;;;;;;;106840;1287;22539;-80
2022/11/11 16:55:24;;;;;;;23.00;12.40;;;;;;;;;;106551;1309;22905;-80
2022/11/11 16:58:21;;;;;;;25.30;13.30;;;;;;;;;;106625;1309;22097;-80
2022/11/11 17:01:08;;;;;;;47.60;18.60;;;;;;;;;;106616;1309;22796;-80
2022/11/11 17:03:56;;;;;;;68.50;23.10;;;;;;;;;;106569;1304;22130;-79
2022/11/11 17:06:47;;;;;;;66.80;22.30;;;;;;;;;;106579;1309;22715;-80
2022/11/11 17:09:37;;;;;;;60.30;23.20;;;;;;;;;;106517;1309;22088;-80
2022/11/11 17:12:31;;;;;;;40.70;18.20;;;;;;;;;;106607;1309;22093;-80
2022/11/11 17:20:30;;;;;;;40.70;16.80;;;;;;;;;;100476;1318;545280;-81
2022/11/11 17:23:16;;;;;;;38.00;18.50;;;;;;;;;;102193;1302;22515;-81
2022/11/11 17:26:02;;;;;;;42.90;18.70;;;;;;;;;;102408;1302;22523;-79
2022/11/11 17:28:47;;;;;;;35.20;15.10;;;;;;;;;;102411;1294;22602;-79
2022/11/11 17:31:33;;;;;;;36.30;17.70;;;;;;;;;;102410;1296;24505;-79
2022/11/11 17:34:19;;;;;;;37.10;18.10;;;;;;;;;;101911;1310;1441543;-79
2022/11/11 17:37:05;;;;;;;45.40;21.90;;;;;;;;;;102965;1307;22731;-78
2022/11/11 17:39:51;;;;;;;44.40;21.80;;;;;;;;;;106933;1297;22792;-78
2022/11/11 17:42:37;;;;;;;42.20;19.50;;;;;;;;;;106679;1309;22201;-79
2022/11/11 17:45:22;;;;;;;36.00;18.40;;;;;;;;;;106967;1300;22113;-79
2022/11/11 17:48:07;;;;;;;30.30;14.90;;;;;;;;;;106771;1308;22840;-79
2022/11/11 17:50:54;;;;;;;29.50;13.70;;;;;;;;;;106816;1299;22907;-79